Wabek, North Dakota
Current Conditions -  °F | °C
As of 7:55 AM on Thursday 29 Jan 2015 (Local Time) from K08D Reporting Station
Overcast Overcast  
Wind Chill: 11°   Ceiling: 1300
Heat Index: 23°   Visibility: 10mi
Dew Point: 21°   Wind: 14mph
Humidity: 93%   Direction: 330°NNW
Pressure: 30.42"   Gusts: 17mph
Location:  48.0227°N, 101.961°W
Report Text: K08D 291355Z AUTO 33012G15KT 10SM OVC013 M05/M06 A3042 RMK AO2
Loading
Personal Weather Stations






























Interactive Weather Map New forecast layout! Learn more

10-Day Weather Forecast

Advertisements
Track Severe Weather on mobile